sensor_id;sensor_type;location;lat;lon;timestamp;P1;durP1;ratioP1;P2;durP2;ratioP2
79526;SDS011;68974;47.754;-3.364;2023-05-07T00:00:45;5.15;;;2.17;;
79526;SDS011;68974;47.754;-3.364;2023-05-07T00:03:10;5.63;;;1.98;;
79526;SDS011;68974;47.754;-3.364;2023-05-07T00:05:36;5.75;;;4.28;;
79526;SDS011;68974;47.754;-3.364;2023-05-07T00:08:02;4.43;;;2.25;;
79526;SDS011;68974;47.754;-3.364;2023-05-07T00:10:28;3.83;;;1.85;;
79526;SDS011;68974;47.754;-3.364;2023-05-07T00:12:53;3.83;;;2.15;;
79526;SDS011;68974;47.754;-3.364;2023-05-07T00:15:19;3.85;;;2.03;;
79526;SDS011;68974;47.754;-3.364;2023-05-07T00:17:44;3.47;;;1.52;;
79526;SDS011;68974;47.754;-3.364;2023-05-07T00:20:10;5.25;;;2.00;;
79526;SDS011;68974;47.754;-3.364;2023-05-07T00:22:36;4.15;;;1.95;;
79526;SDS011;68974;47.754;-3.364;2023-05-07T00:25:01;4.68;;;1.60;;
79526;SDS011;68974;47.754;-3.364;2023-05-07T00:27:26;3.63;;;1.65;;
79526;SDS011;68974;47.754;-3.364;2023-05-07T00:29:52;3.67;;;1.73;;
79526;SDS011;68974;47.754;-3.364;2023-05-07T00:32:17;6.15;;;1.92;;
79526;SDS011;68974;47.754;-3.364;2023-05-07T00:34:43;5.13;;;1.67;;
79526;SDS011;68974;47.754;-3.364;2023-05-07T00:37:08;3.53;;;1.80;;
79526;SDS011;68974;47.754;-3.364;2023-05-07T00:39:34;5.15;;;2.00;;
79526;SDS011;68974;47.754;-3.364;2023-05-07T00:42:00;5.75;;;2.20;;
79526;SDS011;68974;47.754;-3.364;2023-05-07T00:44:27;3.45;;;1.60;;
79526;SDS011;68974;47.754;-3.364;2023-05-07T00:46:53;3.67;;;1.60;;
79526;SDS011;68974;47.754;-3.364;2023-05-07T00:49:19;6.05;;;2.03;;
79526;SDS011;68974;47.754;-3.364;2023-05-07T00:51:45;5.18;;;2.42;;
79526;SDS011;68974;47.754;-3.364;2023-05-07T00:54:12;6.32;;;2.13;;
79526;SDS011;68974;47.754;-3.364;2023-05-07T00:56:38;5.30;;;1.90;;
79526;SDS011;68974;47.754;-3.364;2023-05-07T00:59:04;5.20;;;1.98;;
79526;SDS011;68974;47.754;-3.364;2023-05-07T01:01:31;5.35;;;2.03;;
79526;SDS011;68974;47.754;-3.364;2023-05-07T01:03:57;5.40;;;2.00;;
79526;SDS011;68974;47.754;-3.364;2023-05-07T01:06:23;3.17;;;2.05;;
79526;SDS011;68974;47.754;-3.364;2023-05-07T01:08:51;5.63;;;2.42;;
79526;SDS011;68974;47.754;-3.364;2023-05-07T01:11:18;5.93;;;2.42;;
79526;SDS011;68974;47.754;-3.364;2023-05-07T01:13:47;3.17;;;2.17;;
79526;SDS011;68974;47.754;-3.364;2023-05-07T01:16:13;4.35;;;1.85;;
79526;SDS011;68974;47.754;-3.364;2023-05-07T01:18:39;5.18;;;2.13;;
79526;SDS011;68974;47.754;-3.364;2023-05-07T01:21:05;6.90;;;2.20;;
79526;SDS011;68974;47.754;-3.364;2023-05-07T01:23:30;4.25;;;1.98;;
79526;SDS011;68974;47.754;-3.364;2023-05-07T01:25:56;9.30;;;2.50;;
79526;SDS011;68974;47.754;-3.364;2023-05-07T01:28:21;4.80;;;1.80;;
79526;SDS011;68974;47.754;-3.364;2023-05-07T01:30:52;3.97;;;1.75;;
79526;SDS011;68974;47.754;-3.364;2023-05-07T01:33:21;3.35;;;1.85;;
79526;SDS011;68974;47.754;-3.364;2023-05-07T01:35:49;5.47;;;2.00;;
79526;SDS011;68974;47.754;-3.364;2023-05-07T01:38:18;5.00;;;1.80;;
79526;SDS011;68974;47.754;-3.364;2023-05-07T01:40:45;3.35;;;1.90;;
79526;SDS011;68974;47.754;-3.364;2023-05-07T01:43:11;4.57;;;1.98;;
79526;SDS011;68974;47.754;-3.364;2023-05-07T01:45:37;5.22;;;1.90;;
79526;SDS011;68974;47.754;-3.364;2023-05-07T01:48:03;4.47;;;1.63;;
79526;SDS011;68974;47.754;-3.364;2023-05-07T01:50:32;5.68;;;1.35;;
79526;SDS011;68974;47.754;-3.364;2023-05-07T01:52:58;3.00;;;1.50;;
79526;SDS011;68974;47.754;-3.364;2023-05-07T01:55:24;3.20;;;1.25;;
79526;SDS011;68974;47.754;-3.364;2023-05-07T01:57:50;4.13;;;1.20;;
79526;SDS011;68974;47.754;-3.364;2023-05-07T02:00:15;2.22;;;0.90;;
79526;SDS011;68974;47.754;-3.364;2023-05-07T02:02:41;2.20;;;0.70;;
79526;SDS011;68974;47.754;-3.364;2023-05-07T02:05:06;1.42;;;0.77;;
79526;SDS011;68974;47.754;-3.364;2023-05-07T02:07:32;2.25;;;0.82;;
79526;SDS011;68974;47.754;-3.364;2023-05-07T02:09:58;1.08;;;0.80;;
79526;SDS011;68974;47.754;-3.364;2023-05-07T02:12:23;1.10;;;1.00;;
79526;SDS011;68974;47.754;-3.364;2023-05-07T02:14:49;3.78;;;0.80;;
79526;SDS011;68974;47.754;-3.364;2023-05-07T02:17:14;3.97;;;1.10;;
79526;SDS011;68974;47.754;-3.364;2023-05-07T02:19:40;2.35;;;0.70;;
79526;SDS011;68974;47.754;-3.364;2023-05-07T02:22:05;2.72;;;0.70;;
79526;SDS011;68974;47.754;-3.364;2023-05-07T02:24:31;1.90;;;0.70;;
79526;SDS011;68974;47.754;-3.364;2023-05-07T02:26:56;1.33;;;0.77;;
79526;SDS011;68974;47.754;-3.364;2023-05-07T02:29:22;1.65;;;0.85;;
79526;SDS011;68974;47.754;-3.364;2023-05-07T02:31:47;2.60;;;0.70;;
79526;SDS011;68974;47.754;-3.364;2023-05-07T02:34:16;2.13;;;0.90;;
79526;SDS011;68974;47.754;-3.364;2023-05-07T02:36:41;2.97;;;1.88;;
79526;SDS011;68974;47.754;-3.364;2023-05-07T02:39:07;1.60;;;1.05;;
79526;SDS011;68974;47.754;-3.364;2023-05-07T02:41:32;1.75;;;1.00;;
79526;SDS011;68974;47.754;-3.364;2023-05-07T02:43:58;2.83;;;0.85;;
79526;SDS011;68974;47.754;-3.364;2023-05-07T02:46:23;2.45;;;0.60;;
79526;SDS011;68974;47.754;-3.364;2023-05-07T02:48:48;3.67;;;0.93;;
79526;SDS011;68974;47.754;-3.364;2023-05-07T02:51:14;1.35;;;1.02;;
79526;SDS011;68974;47.754;-3.364;2023-05-07T02:53:39;0.88;;;0.70;;
79526;SDS011;68974;47.754;-3.364;2023-05-07T02:56:05;2.15;;;0.80;;
79526;SDS011;68974;47.754;-3.364;2023-05-07T02:58:31;1.30;;;0.82;;
79526;SDS011;68974;47.754;-3.364;2023-05-07T03:00:56;2.90;;;0.85;;
79526;SDS011;68974;47.754;-3.364;2023-05-07T03:03:22;3.42;;;1.00;;
79526;SDS011;68974;47.754;-3.364;2023-05-07T03:05:47;2.50;;;0.90;;
79526;SDS011;68974;47.754;-3.364;2023-05-07T03:08:13;2.58;;;0.80;;
79526;SDS011;68974;47.754;-3.364;2023-05-07T03:10:39;2.40;;;1.00;;
79526;SDS011;68974;47.754;-3.364;2023-05-07T03:13:04;2.83;;;0.95;;
79526;SDS011;68974;47.754;-3.364;2023-05-07T03:15:30;2.50;;;0.82;;
79526;SDS011;68974;47.754;-3.364;2023-05-07T03:17:55;2.97;;;1.00;;
79526;SDS011;68974;47.754;-3.364;2023-05-07T03:20:21;2.15;;;0.70;;
79526;SDS011;68974;47.754;-3.364;2023-05-07T03:22:46;1.60;;;0.73;;
79526;SDS011;68974;47.754;-3.364;2023-05-07T03:25:12;2.58;;;0.93;;
79526;SDS011;68974;47.754;-3.364;2023-05-07T03:27:39;2.00;;;0.68;;
79526;SDS011;68974;47.754;-3.364;2023-05-07T03:30:04;2.22;;;0.70;;
79526;SDS011;68974;47.754;-3.364;2023-05-07T03:32:31;2.25;;;0.80;;
79526;SDS011;68974;47.754;-3.364;2023-05-07T03:34:57;1.52;;;0.82;;
79526;SDS011;68974;47.754;-3.364;2023-05-07T03:37:22;1.05;;;0.68;;
79526;SDS011;68974;47.754;-3.364;2023-05-07T03:39:48;1.75;;;0.85;;
79526;SDS011;68974;47.754;-3.364;2023-05-07T03:42:13;1.63;;;0.80;;
79526;SDS011;68974;47.754;-3.364;2023-05-07T03:44:40;2.35;;;0.90;;
79526;SDS011;68974;47.754;-3.364;2023-05-07T03:47:05;1.30;;;0.80;;
79526;SDS011;68974;47.754;-3.364;2023-05-07T03:49:31;1.33;;;0.90;;
79526;SDS011;68974;47.754;-3.364;2023-05-07T03:51:56;1.23;;;0.73;;
79526;SDS011;68974;47.754;-3.364;2023-05-07T03:54:21;1.17;;;0.85;;
79526;SDS011;68974;47.754;-3.364;2023-05-07T03:56:47;1.60;;;0.90;;
79526;SDS011;68974;47.754;-3.364;2023-05-07T03:59:12;2.72;;;1.10;;
79526;SDS011;68974;47.754;-3.364;2023-05-07T04:01:38;2.05;;;1.00;;
79526;SDS011;68974;47.754;-3.364;2023-05-07T04:04:03;1.05;;;0.90;;
79526;SDS011;68974;47.754;-3.364;2023-05-07T04:06:29;4.13;;;1.10;;
79526;SDS011;68974;47.754;-3.364;2023-05-07T04:08:55;2.60;;;1.00;;
79526;SDS011;68974;47.754;-3.364;2023-05-07T04:11:20;1.63;;;0.80;;
79526;SDS011;68974;47.754;-3.364;2023-05-07T04:13:46;2.03;;;1.15;;
79526;SDS011;68974;47.754;-3.364;2023-05-07T04:16:12;2.33;;;1.30;;
79526;SDS011;68974;47.754;-3.364;2023-05-07T04:18:37;2.22;;;1.20;;
79526;SDS011;68974;47.754;-3.364;2023-05-07T04:21:02;2.67;;;1.15;;
79526;SDS011;68974;47.754;-3.364;2023-05-07T04:23:28;2.45;;;1.00;;
79526;SDS011;68974;47.754;-3.364;2023-05-07T04:25:53;1.25;;;0.95;;
79526;SDS011;68974;47.754;-3.364;2023-05-07T04:28:19;1.60;;;1.00;;
79526;SDS011;68974;47.754;-3.364;2023-05-07T04:30:45;1.42;;;1.08;;
79526;SDS011;68974;47.754;-3.364;2023-05-07T04:33:11;2.40;;;1.10;;
79526;SDS011;68974;47.754;-3.364;2023-05-07T04:35:36;2.08;;;0.80;;
79526;SDS011;68974;47.754;-3.364;2023-05-07T04:38:02;1.70;;;1.20;;
79526;SDS011;68974;47.754;-3.364;2023-05-07T04:40:27;2.08;;;0.70;;
79526;SDS011;68974;47.754;-3.364;2023-05-07T04:42:52;1.02;;;0.70;;
79526;SDS011;68974;47.754;-3.364;2023-05-07T04:45:18;0.95;;;0.73;;
79526;SDS011;68974;47.754;-3.364;2023-05-07T04:47:45;2.13;;;1.52;;
79526;SDS011;68974;47.754;-3.364;2023-05-07T04:50:10;1.50;;;1.00;;
79526;SDS011;68974;47.754;-3.364;2023-05-07T04:52:35;2.53;;;1.50;;
79526;SDS011;68974;47.754;-3.364;2023-05-07T04:55:01;3.47;;;1.70;;
79526;SDS011;68974;47.754;-3.364;2023-05-07T04:57:27;3.10;;;1.65;;
79526;SDS011;68974;47.754;-3.364;2023-05-07T04:59:52;5.60;;;3.50;;
79526;SDS011;68974;47.754;-3.364;2023-05-07T05:02:18;4.05;;;2.67;;
79526;SDS011;68974;47.754;-3.364;2023-05-07T05:04:44;4.47;;;3.08;;
79526;SDS011;68974;47.754;-3.364;2023-05-07T05:07:10;2.92;;;1.95;;
79526;SDS011;68974;47.754;-3.364;2023-05-07T05:09:35;6.93;;;3.67;;
79526;SDS011;68974;47.754;-3.364;2023-05-07T05:12:00;2.40;;;1.48;;
79526;SDS011;68974;47.754;-3.364;2023-05-07T05:14:26;2.53;;;1.42;;
79526;SDS011;68974;47.754;-3.364;2023-05-07T05:16:51;4.82;;;3.65;;
79526;SDS011;68974;47.754;-3.364;2023-05-07T05:19:17;2.55;;;1.30;;
79526;SDS011;68974;47.754;-3.364;2023-05-07T05:21:42;2.55;;;1.60;;
79526;SDS011;68974;47.754;-3.364;2023-05-07T05:24:07;1.52;;;1.10;;
79526;SDS011;68974;47.754;-3.364;2023-05-07T05:26:33;2.00;;;1.25;;
79526;SDS011;68974;47.754;-3.364;2023-05-07T05:28:59;1.38;;;1.00;;
79526;SDS011;68974;47.754;-3.364;2023-05-07T05:31:24;1.77;;;1.00;;
79526;SDS011;68974;47.754;-3.364;2023-05-07T05:33:50;1.77;;;0.85;;
79526;SDS011;68974;47.754;-3.364;2023-05-07T05:36:15;1.85;;;1.27;;
79526;SDS011;68974;47.754;-3.364;2023-05-07T05:38:41;1.70;;;1.08;;
79526;SDS011;68974;47.754;-3.364;2023-05-07T05:41:06;2.80;;;1.38;;
79526;SDS011;68974;47.754;-3.364;2023-05-07T05:43:32;1.10;;;1.00;;
79526;SDS011;68974;47.754;-3.364;2023-05-07T05:45:57;1.73;;;1.00;;
79526;SDS011;68974;47.754;-3.364;2023-05-07T05:48:23;1.83;;;1.35;;
79526;SDS011;68974;47.754;-3.364;2023-05-07T05:50:48;1.88;;;1.10;;
79526;SDS011;68974;47.754;-3.364;2023-05-07T05:53:14;2.88;;;1.20;;
79526;SDS011;68974;47.754;-3.364;2023-05-07T05:55:39;1.52;;;1.00;;
79526;SDS011;68974;47.754;-3.364;2023-05-07T05:58:05;1.20;;;1.00;;
79526;SDS011;68974;47.754;-3.364;2023-05-07T06:00:30;1.77;;;0.90;;
79526;SDS011;68974;47.754;-3.364;2023-05-07T06:02:56;2.75;;;1.40;;
79526;SDS011;68974;47.754;-3.364;2023-05-07T06:05:21;1.45;;;0.80;;
79526;SDS011;68974;47.754;-3.364;2023-05-07T06:07:46;2.42;;;0.90;;
79526;SDS011;68974;47.754;-3.364;2023-05-07T06:10:12;1.95;;;0.80;;
79526;SDS011;68974;47.754;-3.364;2023-05-07T06:12:37;1.27;;;1.10;;
79526;SDS011;68974;47.754;-3.364;2023-05-07T06:15:03;1.48;;;0.93;;
79526;SDS011;68974;47.754;-3.364;2023-05-07T06:17:29;2.08;;;1.13;;
79526;SDS011;68974;47.754;-3.364;2023-05-07T06:19:54;1.48;;;1.10;;
79526;SDS011;68974;47.754;-3.364;2023-05-07T06:22:20;2.17;;;1.27;;
79526;SDS011;68974;47.754;-3.364;2023-05-07T06:24:45;4.53;;;1.20;;
79526;SDS011;68974;47.754;-3.364;2023-05-07T06:27:11;1.20;;;0.93;;
79526;SDS011;68974;47.754;-3.364;2023-05-07T06:29:36;2.33;;;1.13;;
79526;SDS011;68974;47.754;-3.364;2023-05-07T06:34:34;2.50;;;1.30;;
79526;SDS011;68974;47.754;-3.364;2023-05-07T06:37:00;1.67;;;1.35;;
79526;SDS011;68974;47.754;-3.364;2023-05-07T06:39:26;1.95;;;1.58;;
79526;SDS011;68974;47.754;-3.364;2023-05-07T06:41:51;1.67;;;1.20;;
79526;SDS011;68974;47.754;-3.364;2023-05-07T06:44:17;2.78;;;1.88;;
79526;SDS011;68974;47.754;-3.364;2023-05-07T06:46:42;1.90;;;1.35;;
79526;SDS011;68974;47.754;-3.364;2023-05-07T06:49:07;1.77;;;1.38;;
79526;SDS011;68974;47.754;-3.364;2023-05-07T06:51:33;1.98;;;1.38;;
79526;SDS011;68974;47.754;-3.364;2023-05-07T06:53:58;1.70;;;1.30;;
79526;SDS011;68974;47.754;-3.364;2023-05-07T06:56:24;1.95;;;1.60;;
79526;SDS011;68974;47.754;-3.364;2023-05-07T06:58:50;2.08;;;1.02;;
79526;SDS011;68974;47.754;-3.364;2023-05-07T07:01:15;1.63;;;1.10;;
79526;SDS011;68974;47.754;-3.364;2023-05-07T07:03:41;1.80;;;1.30;;
79526;SDS011;68974;47.754;-3.364;2023-05-07T07:06:06;1.00;;;0.80;;
79526;SDS011;68974;47.754;-3.364;2023-05-07T07:08:32;1.83;;;1.05;;
79526;SDS011;68974;47.754;-3.364;2023-05-07T07:10:57;1.40;;;1.08;;
79526;SDS011;68974;47.754;-3.364;2023-05-07T07:13:23;6.30;;;3.63;;
79526;SDS011;68974;47.754;-3.364;2023-05-07T07:15:48;3.22;;;2.70;;
79526;SDS011;68974;47.754;-3.364;2023-05-07T07:18:13;2.20;;;1.80;;
79526;SDS011;68974;47.754;-3.364;2023-05-07T07:20:39;1.85;;;1.33;;
79526;SDS011;68974;47.754;-3.364;2023-05-07T07:23:04;1.50;;;1.10;;
79526;SDS011;68974;47.754;-3.364;2023-05-07T07:25:30;1.02;;;0.93;;
79526;SDS011;68974;47.754;-3.364;2023-05-07T07:27:55;0.68;;;0.50;;
79526;SDS011;68974;47.754;-3.364;2023-05-07T07:30:21;2.75;;;2.00;;
79526;SDS011;68974;47.754;-3.364;2023-05-07T07:32:46;1.70;;;1.25;;
79526;SDS011;68974;47.754;-3.364;2023-05-07T07:35:12;1.55;;;0.93;;
79526;SDS011;68974;47.754;-3.364;2023-05-07T07:37:37;1.15;;;0.90;;
79526;SDS011;68974;47.754;-3.364;2023-05-07T07:40:02;1.00;;;0.80;;
79526;SDS011;68974;47.754;-3.364;2023-05-07T07:42:28;1.73;;;0.70;;
79526;SDS011;68974;47.754;-3.364;2023-05-07T07:44:54;1.17;;;0.88;;
79526;SDS011;68974;47.754;-3.364;2023-05-07T07:47:20;1.00;;;0.70;;
79526;SDS011;68974;47.754;-3.364;2023-05-07T07:49:45;0.95;;;0.60;;
79526;SDS011;68974;47.754;-3.364;2023-05-07T07:52:10;1.00;;;0.90;;
79526;SDS011;68974;47.754;-3.364;2023-05-07T07:54:36;1.63;;;0.65;;
79526;SDS011;68974;47.754;-3.364;2023-05-07T07:57:01;0.77;;;0.52;;
79526;SDS011;68974;47.754;-3.364;2023-05-07T07:59:27;1.63;;;0.77;;
79526;SDS011;68974;47.754;-3.364;2023-05-07T08:01:52;0.80;;;0.47;;
79526;SDS011;68974;47.754;-3.364;2023-05-07T08:04:20;0.60;;;0.45;;
79526;SDS011;68974;47.754;-3.364;2023-05-07T08:06:46;1.73;;;0.93;;
79526;SDS011;68974;47.754;-3.364;2023-05-07T08:09:11;0.45;;;0.40;;
79526;SDS011;68974;47.754;-3.364;2023-05-07T08:11:38;0.70;;;0.60;;
79526;SDS011;68974;47.754;-3.364;2023-05-07T08:14:03;1.15;;;0.70;;
79526;SDS011;68974;47.754;-3.364;2023-05-07T08:16:29;0.60;;;0.60;;
79526;SDS011;68974;47.754;-3.364;2023-05-07T08:18:55;0.95;;;0.68;;
79526;SDS011;68974;47.754;-3.364;2023-05-07T08:21:20;1.63;;;0.55;;
79526;SDS011;68974;47.754;-3.364;2023-05-07T08:23:46;1.40;;;1.05;;
79526;SDS011;68974;47.754;-3.364;2023-05-07T08:26:12;1.00;;;0.70;;
79526;SDS011;68974;47.754;-3.364;2023-05-07T08:28:37;1.05;;;0.60;;
79526;SDS011;68974;47.754;-3.364;2023-05-07T08:31:02;0.75;;;0.43;;
79526;SDS011;68974;47.754;-3.364;2023-05-07T08:33:28;0.73;;;0.50;;
79526;SDS011;68974;47.754;-3.364;2023-05-07T08:35:53;2.58;;;1.55;;
79526;SDS011;68974;47.754;-3.364;2023-05-07T08:38:18;1.92;;;1.27;;
79526;SDS011;68974;47.754;-3.364;2023-05-07T08:40:44;1.13;;;0.75;;
79526;SDS011;68974;47.754;-3.364;2023-05-07T08:43:12;1.05;;;0.75;;
79526;SDS011;68974;47.754;-3.364;2023-05-07T08:45:39;1.30;;;0.75;;
79526;SDS011;68974;47.754;-3.364;2023-05-07T08:48:08;1.00;;;0.85;;
79526;SDS011;68974;47.754;-3.364;2023-05-07T08:50:35;1.33;;;0.60;;
79526;SDS011;68974;47.754;-3.364;2023-05-07T08:53:04;0.70;;;0.50;;
79526;SDS011;68974;47.754;-3.364;2023-05-07T08:55:30;1.13;;;0.60;;
79526;SDS011;68974;47.754;-3.364;2023-05-07T08:57:56;0.70;;;0.60;;
79526;SDS011;68974;47.754;-3.364;2023-05-07T09:00:21;0.70;;;0.55;;
79526;SDS011;68974;47.754;-3.364;2023-05-07T09:02:47;0.60;;;0.50;;
79526;SDS011;68974;47.754;-3.364;2023-05-07T09:05:12;1.92;;;1.30;;
79526;SDS011;68974;47.754;-3.364;2023-05-07T09:07:38;1.10;;;0.90;;
79526;SDS011;68974;47.754;-3.364;2023-05-07T09:10:04;0.93;;;0.65;;
79526;SDS011;68974;47.754;-3.364;2023-05-07T09:12:30;2.40;;;0.88;;
79526;SDS011;68974;47.754;-3.364;2023-05-07T09:14:56;1.17;;;0.63;;
79526;SDS011;68974;47.754;-3.364;2023-05-07T09:17:22;1.30;;;0.60;;
79526;SDS011;68974;47.754;-3.364;2023-05-07T09:19:47;0.82;;;0.60;;
79526;SDS011;68974;47.754;-3.364;2023-05-07T09:22:13;0.75;;;0.60;;
79526;SDS011;68974;47.754;-3.364;2023-05-07T09:24:38;0.73;;;0.70;;
79526;SDS011;68974;47.754;-3.364;2023-05-07T09:27:04;1.23;;;0.60;;
79526;SDS011;68974;47.754;-3.364;2023-05-07T09:29:30;2.47;;;1.70;;
79526;SDS011;68974;47.754;-3.364;2023-05-07T09:32:06;1.20;;;0.70;;
79526;SDS011;68974;47.754;-3.364;2023-05-07T09:34:32;1.00;;;0.80;;
79526;SDS011;68974;47.754;-3.364;2023-05-07T09:37:05;0.73;;;0.70;;
79526;SDS011;68974;47.754;-3.364;2023-05-07T09:39:47;1.15;;;0.70;;
79526;SDS011;68974;47.754;-3.364;2023-05-07T09:42:14;1.75;;;0.90;;
79526;SDS011;68974;47.754;-3.364;2023-05-07T09:44:40;1.35;;;0.70;;
79526;SDS011;68974;47.754;-3.364;2023-05-07T09:47:06;1.10;;;0.60;;
79526;SDS011;68974;47.754;-3.364;2023-05-07T09:49:36;1.17;;;0.63;;
79526;SDS011;68974;47.754;-3.364;2023-05-07T09:52:04;1.17;;;0.50;;
79526;SDS011;68974;47.754;-3.364;2023-05-07T09:54:33;1.73;;;0.75;;
79526;SDS011;68974;47.754;-3.364;2023-05-07T09:57:00;0.60;;;0.50;;
79526;SDS011;68974;47.754;-3.364;2023-05-07T09:59:27;0.95;;;0.70;;
79526;SDS011;68974;47.754;-3.364;2023-05-07T10:04:22;0.73;;;0.70;;
79526;SDS011;68974;47.754;-3.364;2023-05-07T10:06:47;1.42;;;0.77;;
79526;SDS011;68974;47.754;-3.364;2023-05-07T10:09:13;1.10;;;0.40;;
79526;SDS011;68974;47.754;-3.364;2023-05-07T10:11:40;1.67;;;1.00;;
79526;SDS011;68974;47.754;-3.364;2023-05-07T10:14:06;1.30;;;0.70;;
79526;SDS011;68974;47.754;-3.364;2023-05-07T10:16:32;0.43;;;0.38;;
79526;SDS011;68974;47.754;-3.364;2023-05-07T10:19:04;3.20;;;1.95;;
79526;SDS011;68974;47.754;-3.364;2023-05-07T10:21:30;2.28;;;2.08;;
79526;SDS011;68974;47.754;-3.364;2023-05-07T10:24:13;2.15;;;1.20;;
79526;SDS011;68974;47.754;-3.364;2023-05-07T10:26:45;1.42;;;0.98;;
79526;SDS011;68974;47.754;-3.364;2023-05-07T10:29:57;1.92;;;1.38;;
79526;SDS011;68974;47.754;-3.364;2023-05-07T10:34:59;3.70;;;0.88;;
79526;SDS011;68974;47.754;-3.364;2023-05-07T10:37:27;3.67;;;0.90;;
79526;SDS011;68974;47.754;-3.364;2023-05-07T10:39:54;2.10;;;0.80;;
79526;SDS011;68974;47.754;-3.364;2023-05-07T10:42:19;3.10;;;1.17;;
79526;SDS011;68974;47.754;-3.364;2023-05-07T10:44:45;2.55;;;1.10;;
79526;SDS011;68974;47.754;-3.364;2023-05-07T10:47:11;3.90;;;1.88;;
79526;SDS011;68974;47.754;-3.364;2023-05-07T10:54:38;1.20;;;0.90;;
79526;SDS011;68974;47.754;-3.364;2023-05-07T10:57:49;1.42;;;1.17;;
79526;SDS011;68974;47.754;-3.364;2023-05-07T11:00:44;0.60;;;0.57;;
79526;SDS011;68974;47.754;-3.364;2023-05-07T11:05:31;0.80;;;0.60;;
79526;SDS011;68974;47.754;-3.364;2023-05-07T11:07:58;2.20;;;1.00;;
79526;SDS011;68974;47.754;-3.364;2023-05-07T11:13:18;2.22;;;0.73;;
79526;SDS011;68974;47.754;-3.364;2023-05-07T11:18:49;1.55;;;0.80;;
79526;SDS011;68974;47.754;-3.364;2023-05-07T11:21:32;2.10;;;1.02;;
79526;SDS011;68974;47.754;-3.364;2023-05-07T11:23:58;1.60;;;1.10;;
79526;SDS011;68974;47.754;-3.364;2023-05-07T11:26:24;1.20;;;0.80;;
79526;SDS011;68974;47.754;-3.364;2023-05-07T11:28:50;1.23;;;0.80;;
79526;SDS011;68974;47.754;-3.364;2023-05-07T11:31:20;1.10;;;1.00;;
79526;SDS011;68974;47.754;-3.364;2023-05-07T11:33:47;1.00;;;0.60;;
79526;SDS011;68974;47.754;-3.364;2023-05-07T11:36:13;1.77;;;1.02;;
79526;SDS011;68974;47.754;-3.364;2023-05-07T11:38:38;1.80;;;0.90;;
79526;SDS011;68974;47.754;-3.364;2023-05-07T11:41:04;8.88;;;6.35;;
79526;SDS011;68974;47.754;-3.364;2023-05-07T11:43:30;2.47;;;1.58;;
79526;SDS011;68974;47.754;-3.364;2023-05-07T11:46:07;1.38;;;1.00;;
79526;SDS011;68974;47.754;-3.364;2023-05-07T11:48:36;3.13;;;1.55;;
79526;SDS011;68974;47.754;-3.364;2023-05-07T11:51:03;2.10;;;1.27;;
79526;SDS011;68974;47.754;-3.364;2023-05-07T11:53:39;2.25;;;1.40;;
79526;SDS011;68974;47.754;-3.364;2023-05-07T11:56:06;2.58;;;1.50;;
79526;SDS011;68974;47.754;-3.364;2023-05-07T11:58:32;2.22;;;1.20;;
79526;SDS011;68974;47.754;-3.364;2023-05-07T12:00:58;3.40;;;1.20;;
79526;SDS011;68974;47.754;-3.364;2023-05-07T12:03:23;1.50;;;1.10;;
79526;SDS011;68974;47.754;-3.364;2023-05-07T12:05:49;2.08;;;1.30;;
79526;SDS011;68974;47.754;-3.364;2023-05-07T12:08:15;3.92;;;1.20;;
79526;SDS011;68974;47.754;-3.364;2023-05-07T12:10:41;2.08;;;1.02;;
79526;SDS011;68974;47.754;-3.364;2023-05-07T12:15:44;1.73;;;0.90;;
79526;SDS011;68974;47.754;-3.364;2023-05-07T12:18:11;1.77;;;0.80;;
79526;SDS011;68974;47.754;-3.364;2023-05-07T12:20:37;1.20;;;0.85;;
79526;SDS011;68974;47.754;-3.364;2023-05-07T12:23:03;2.05;;;1.20;;
79526;SDS011;68974;47.754;-3.364;2023-05-07T12:25:32;2.13;;;0.90;;
79526;SDS011;68974;47.754;-3.364;2023-05-07T12:28:00;1.85;;;1.00;;
79526;SDS011;68974;47.754;-3.364;2023-05-07T12:30:26;2.20;;;1.35;;
79526;SDS011;68974;47.754;-3.364;2023-05-07T12:32:52;2.25;;;1.10;;
79526;SDS011;68974;47.754;-3.364;2023-05-07T12:35:26;1.60;;;1.00;;
79526;SDS011;68974;47.754;-3.364;2023-05-07T12:37:55;1.70;;;1.00;;
79526;SDS011;68974;47.754;-3.364;2023-05-07T12:40:25;1.63;;;0.80;;
79526;SDS011;68974;47.754;-3.364;2023-05-07T12:43:00;1.63;;;1.10;;
79526;SDS011;68974;47.754;-3.364;2023-05-07T12:45:25;2.17;;;1.70;;
79526;SDS011;68974;47.754;-3.364;2023-05-07T12:47:51;2.45;;;1.20;;
79526;SDS011;68974;47.754;-3.364;2023-05-07T12:50:16;3.80;;;1.30;;
79526;SDS011;68974;47.754;-3.364;2023-05-07T12:52:43;2.05;;;1.10;;
79526;SDS011;68974;47.754;-3.364;2023-05-07T12:55:11;2.45;;;1.33;;
79526;SDS011;68974;47.754;-3.364;2023-05-07T12:57:39;2.75;;;1.23;;
79526;SDS011;68974;47.754;-3.364;2023-05-07T13:00:06;1.25;;;0.85;;
79526;SDS011;68974;47.754;-3.364;2023-05-07T13:02:33;2.25;;;1.27;;
79526;SDS011;68974;47.754;-3.364;2023-05-07T13:05:02;2.90;;;1.00;;
79526;SDS011;68974;47.754;-3.364;2023-05-07T13:07:27;1.75;;;0.82;;
79526;SDS011;68974;47.754;-3.364;2023-05-07T13:09:52;2.63;;;1.02;;
79526;SDS011;68974;47.754;-3.364;2023-05-07T13:12:18;1.98;;;1.02;;
79526;SDS011;68974;47.754;-3.364;2023-05-07T13:14:43;2.30;;;1.20;;
79526;SDS011;68974;47.754;-3.364;2023-05-07T13:17:09;2.42;;;1.10;;
79526;SDS011;68974;47.754;-3.364;2023-05-07T13:19:34;3.17;;;1.08;;
79526;SDS011;68974;47.754;-3.364;2023-05-07T13:21:59;3.58;;;1.00;;
79526;SDS011;68974;47.754;-3.364;2023-05-07T13:24:25;1.83;;;1.17;;
79526;SDS011;68974;47.754;-3.364;2023-05-07T13:26:50;3.20;;;1.50;;
79526;SDS011;68974;47.754;-3.364;2023-05-07T13:29:15;1.77;;;1.30;;
79526;SDS011;68974;47.754;-3.364;2023-05-07T13:31:41;2.53;;;0.90;;
79526;SDS011;68974;47.754;-3.364;2023-05-07T13:34:09;3.55;;;1.15;;
79526;SDS011;68974;47.754;-3.364;2023-05-07T13:36:34;1.40;;;0.77;;
79526;SDS011;68974;47.754;-3.364;2023-05-07T13:39:05;3.35;;;1.00;;
79526;SDS011;68974;47.754;-3.364;2023-05-07T13:41:31;5.63;;;1.13;;
79526;SDS011;68974;47.754;-3.364;2023-05-07T13:43:56;3.60;;;1.10;;
79526;SDS011;68974;47.754;-3.364;2023-05-07T13:46:22;1.83;;;0.82;;
79526;SDS011;68974;47.754;-3.364;2023-05-07T13:48:47;1.83;;;0.90;;
79526;SDS011;68974;47.754;-3.364;2023-05-07T13:51:12;2.25;;;0.90;;
79526;SDS011;68974;47.754;-3.364;2023-05-07T13:53:38;4.63;;;1.05;;
79526;SDS011;68974;47.754;-3.364;2023-05-07T13:56:04;3.17;;;1.38;;
79526;SDS011;68974;47.754;-3.364;2023-05-07T13:58:30;2.15;;;1.00;;
79526;SDS011;68974;47.754;-3.364;2023-05-07T14:00:55;3.10;;;1.00;;
79526;SDS011;68974;47.754;-3.364;2023-05-07T14:03:21;2.30;;;1.15;;
79526;SDS011;68974;47.754;-3.364;2023-05-07T14:05:46;6.45;;;1.33;;
79526;SDS011;68974;47.754;-3.364;2023-05-07T14:08:12;2.85;;;1.02;;
79526;SDS011;68974;47.754;-3.364;2023-05-07T14:10:39;3.47;;;1.52;;
79526;SDS011;68974;47.754;-3.364;2023-05-07T14:13:05;6.38;;;2.05;;
79526;SDS011;68974;47.754;-3.364;2023-05-07T14:15:31;3.53;;;1.50;;
79526;SDS011;68974;47.754;-3.364;2023-05-07T14:17:57;6.55;;;1.30;;
79526;SDS011;68974;47.754;-3.364;2023-05-07T14:20:24;4.45;;;1.33;;
79526;SDS011;68974;47.754;-3.364;2023-05-07T14:22:50;4.35;;;1.35;;
79526;SDS011;68974;47.754;-3.364;2023-05-07T14:25:15;4.13;;;1.10;;
79526;SDS011;68974;47.754;-3.364;2023-05-07T14:27:41;2.67;;;1.25;;
79526;SDS011;68974;47.754;-3.364;2023-05-07T14:30:07;3.85;;;1.38;;
79526;SDS011;68974;47.754;-3.364;2023-05-07T14:32:33;3.88;;;1.10;;
79526;SDS011;68974;47.754;-3.364;2023-05-07T14:34:59;2.60;;;0.98;;
79526;SDS011;68974;47.754;-3.364;2023-05-07T14:37:24;3.58;;;1.00;;
79526;SDS011;68974;47.754;-3.364;2023-05-07T14:39:49;2.85;;;1.00;;
79526;SDS011;68974;47.754;-3.364;2023-05-07T14:42:15;1.98;;;1.00;;
79526;SDS011;68974;47.754;-3.364;2023-05-07T14:44:42;3.47;;;1.48;;
79526;SDS011;68974;47.754;-3.364;2023-05-07T14:47:07;6.25;;;2.78;;
79526;SDS011;68974;47.754;-3.364;2023-05-07T14:49:33;5.10;;;1.67;;
79526;SDS011;68974;47.754;-3.364;2023-05-07T14:51:59;4.43;;;1.40;;